Nora, Minnesota
Current Conditions -  °F | °C
As of 2:55 AM on Friday 24 Oct 2014 (Local Time) from KFSE Reporting Station
Clear Clear  
Wind Chill: 50°   Ceiling: Unl
Heat Index: 50°   Visibility: 10mi
Dew Point: 43°   Wind: 10mph
Humidity: 76%   Direction: 180°S
Pressure: 29.8"   Gusts: NA
Location:  47.3892°N, 95.4294°W
Report Text: KFSE 240755Z AUTO 18009KT 10SM CLR 10/06 A2980 RMK AO2
Loading
Personal Weather Stations






























Interactive Weather Map
Tropical Storm Tracking
New forecast layout! Learn more

10-Day Weather Forecast

Advertisements
Track Severe Weather on mobile